Main page
METAR-TAF:

METAR-TAF

Airports :

Mahshahr, Iran

Mahshahr Airport

latitude: 30-33-23N, longitude: 049-09-07E, elevation: 2 m

Current weather observation

The report was made 29 minutes ago, at 20:00 UTC
Wind 6 kt from the South/Southeast
Temperature 29°C
Humidity 45%
Pressure 1008 hPa
Visibility: 4500 m
widespread dust

METAR: OIAM 302000Z 15006KT 4500 DU NSC 29/16 Q1008

Time: 00:59 (20:29 UTC)


TAF: missing

Weather observations and forecasts of more than 4000 airports (METAR and TAF reports).

The available stations are represented by yellow and red dots on the map.

Hover mouse over dot to see the name of the station.

Then click to see weather observations and forecasts.

To change the map : click on the green buttons with a black cross to zoom in, on the green button with a dash to zoom out, or on the green arrows for adjacent maps.


METAR-TAF: